Portada
METAR-TAF:

METAR-TAF

Aeroports :

Al Wajh, Aràbia Saudita

latitud: 26-12N, longitud: 036-28E, altitud: 20 m

Observació

L'informe es va fer fa 24 minuts, a les 16:00 UTC
Vent 13 kt del Nord-Oest
Temperatura 27°C
Humitat 48%
Pressió 1012 hPa
Visibilitat 10 km o més
sense núvols per sota de 1500 mi sense presència de cumulonimbus.

METAR: OEWJ 181600Z 31013KT CAVOK 27/15 Q1012 NOSIG

Hora: 19:24 (16:24 UTC)

Pronòstic

L'informe es va fer fa 5 hores i 24 minuts, a les 11:00 UTC
Pronòstic vàlid del 18 a les 12 UTC al 19 a les 18 UTC
Vent 15 kt del Nord-Oest
Visibilitat 10 km o més
Escasses núvols a una alçada de 4000 ft
Evolucionant progressivament
l' 18 a les 18 UTC al 18 a les 20 UTC
Vent 6 kt del Nord-Est

TAF: OEWJ 181100Z 1812/1918 31015KT 9999 FEW040 BECMG 1818/1820 04006KT

Observacions i pronòstics meteorològics de més de 4000 aeroports (METAR i TAF).

Les estacions disponibles són els punts grocs i vermells al mapa.

Posi el ratolí al punt desitjat per veure el nom de l'estació.

Feu clic per veure les observacions i els pronòstics meteorològics.

Per canviar el mapa: feu clic els botons verds amb una creu de color negre per apropar; al botó verd amb un guió per allunyar la imatge; o en les fletxes verdes per a mapes adjacents.


METAR-TAF: